Time;durP1;ratioP1;P1;durP2;ratioP2;P2;SDS_P1;SDS_P2;PMS_P1;PMS_P2;Temp;Humidity;BMP_temperature;BMP_pressure;BME280_temperature;BME280_humidity;BME280_pressure;Samples;Min_cycle;Max_cycle;Signal;HPM_P1;HPM_P2
2022/06/13 00:00:14;;;;;;;16.75;3.97;;;19.90;77.10;;;;;;5033695;28;20021;-62
2022/06/13 00:02:40;;;;;;;8.15;2.92;;;19.90;76.90;;;;;;5033378;28;20052;-62
2022/06/13 00:05:08;;;;;;;9.88;3.83;;;19.90;77.10;;;;;;5016048;28;20056;-62
2022/06/13 00:07:34;;;;;;;11.40;3.25;;;19.90;77.20;;;;;;5033302;28;20040;-64
2022/06/13 00:09:59;;;;;;;13.07;3.88;;;19.90;77.30;;;;;;5016169;28;20430;-63
2022/06/13 00:12:26;;;;;;;12.65;4.00;;;19.90;77.30;;;;;;5032929;28;20041;-62
2022/06/13 00:14:52;;;;;;;13.85;3.75;;;19.90;77.30;;;;;;5033276;28;20026;-62
2022/06/13 00:17:17;;;;;;;8.02;3.17;;;19.90;77.50;;;;;;5033684;28;20049;-62
2022/06/13 00:19:43;;;;;;;14.95;3.65;;;19.80;77.50;;;;;;5033322;28;20021;-69
2022/06/13 00:22:09;;;;;;;9.85;3.40;;;19.80;77.70;;;;;;5032717;28;20107;-62
2022/06/13 00:24:35;;;;;;;12.80;3.70;;;19.70;77.90;;;;;;5033800;28;20029;-62
2022/06/13 00:27:01;;;;;;;10.70;3.92;;;19.70;78.10;;;;;;5032574;28;20460;-63
2022/06/13 00:29:26;;;;;;;13.85;3.75;;;19.70;78.20;;;;;;5033239;28;20030;-63
2022/06/13 00:31:52;;;;;;;11.10;4.05;;;19.70;78.30;;;;;;5033135;28;20029;-63
2022/06/13 00:34:18;;;;;;;11.10;3.85;;;19.70;78.50;;;;;;5033327;28;20033;-63
2022/06/13 00:36:43;;;;;;;11.93;3.83;;;19.70;78.50;;;;;;5014898;28;20026;-63
2022/06/13 00:39:09;;;;;;;15.77;4.07;;;19.70;79.20;;;;;;5032355;28;20033;-62
2022/06/13 00:41:37;;;;;;;11.52;3.47;;;19.70;78.70;;;;;;5032842;28;20071;-63
2022/06/13 00:44:21;;;;;;;9.50;3.97;;;19.70;78.70;;;;;;5033181;28;20022;-64
2022/06/13 00:46:47;;;;;;;10.80;3.85;;;19.70;78.90;;;;;;5033058;28;20061;-63
2022/06/13 00:49:39;;;;;;;11.35;4.07;;;19.70;78.80;;;;;;5032479;28;20040;-62
2022/06/13 00:52:08;;;;;;;10.80;3.78;;;19.70;79.00;;;;;;5032974;28;20395;-65
2022/06/13 00:54:36;;;;;;;11.00;3.85;;;19.70;79.10;;;;;;5033067;28;20021;-62
2022/06/13 00:57:04;;;;;;;10.07;3.63;;;19.60;78.90;;;;;;5032791;28;20034;-62
2022/06/13 00:59:33;;;;;;;12.13;3.72;;;19.60;79.30;;;;;;5032196;28;20018;-65
2022/06/13 01:01:59;;;;;;;11.23;4.15;;;19.60;79.30;;;;;;5033041;28;20064;-67
2022/06/13 01:04:24;;;;;;;9.07;3.10;;;19.60;79.40;;;;;;5032919;28;20054;-69
2022/06/13 01:06:51;;;;;;;10.80;4.07;;;19.60;79.50;;;;;;5033196;28;20029;-63
2022/06/13 01:09:18;;;;;;;12.77;3.70;;;19.50;79.60;;;;;;5032881;28;20029;-70
2022/06/13 01:11:52;;;;;;;11.38;3.78;;;19.50;79.80;;;;;;5032458;28;20132;-65
2022/06/13 01:14:49;;;;;;;9.48;3.10;;;19.50;79.80;;;;;;5032599;28;20033;-67
2022/06/13 01:17:39;;;;;;;11.38;4.07;;;19.50;80.00;;;;;;5033147;28;20032;-71
2022/06/13 01:20:08;;;;;;;11.38;3.97;;;19.50;80.20;;;;;;5032875;28;20485;-70
2022/06/13 01:22:54;;;;;;;10.68;3.67;;;19.50;80.20;;;;;;5032672;28;20083;-70
2022/06/13 01:25:39;;;;;;;12.27;3.92;;;19.40;80.40;;;;;;5032537;28;20026;-70
2022/06/13 01:28:23;;;;;;;15.18;4.57;;;19.40;80.40;;;;;;5032446;28;20045;-68
2022/06/13 01:31:12;;;;;;;10.15;3.83;;;19.40;80.70;;;;;;5032619;28;20029;-68
2022/06/13 01:33:41;;;;;;;11.32;3.95;;;19.40;80.80;;;;;;5032438;28;20033;-70
2022/06/13 01:36:32;;;;;;;13.93;3.97;;;19.30;80.80;;;;;;5032370;28;20024;-70
2022/06/13 01:39:34;;;;;;;10.98;4.10;;;19.30;81.00;;;;;;5032450;28;20047;-70
2022/06/13 01:42:23;;;;;;;8.48;3.42;;;19.30;81.00;;;;;;5032413;28;20040;-66
2022/06/13 01:45:05;;;;;;;11.75;3.70;;;19.30;81.00;;;;;;5032523;28;20387;-70
2022/06/13 01:47:54;;;;;;;13.43;4.00;;;19.30;81.40;;;;;;5032496;28;20034;-70
2022/06/13 01:50:35;;;;;;;11.38;4.50;;;19.30;81.50;;;;;;5032624;28;20022;-70
2022/06/13 01:53:15;;;;;;;13.02;4.22;;;19.30;81.60;;;;;;5036099;28;20044;-68
2022/06/13 01:56:09;;;;;;;12.57;4.35;;;19.30;81.70;;;;;;5035835;28;20018;-69
2022/06/13 01:59:09;;;;;;;8.93;4.05;;;19.30;81.80;;;;;;5036060;28;20100;-70
2022/06/13 02:01:43;;;;;;;10.50;3.97;;;19.30;82.00;;;;;;5035976;28;20117;-70
2022/06/13 02:04:18;;;;;;;13.70;4.60;;;19.20;82.10;;;;;;5035859;28;20087;-69
2022/06/13 02:06:49;;;;;;;14.27;4.60;;;19.30;82.10;;;;;;5035871;28;20026;-66
2022/06/13 02:09:20;;;;;;;11.38;3.90;;;19.20;82.20;;;;;;5035582;28;20462;-70
2022/06/13 02:11:49;;;;;;;11.97;4.30;;;19.20;82.40;;;;;;5035853;28;20449;-70
2022/06/13 02:14:24;;;;;;;12.50;4.38;;;19.20;82.60;;;;;;5035356;28;20072;-70
2022/06/13 02:17:09;;;;;;;15.23;4.53;;;19.20;82.80;;;;;;5035328;28;20098;-69
2022/06/13 02:19:41;;;;;;;11.23;4.35;;;19.10;82.90;;;;;;5035855;28;20030;-67
2022/06/13 02:22:19;;;;;;;15.77;4.82;;;19.10;83.10;;;;;;5035814;28;20071;-70
2022/06/13 02:25:10;;;;;;;16.80;4.38;;;19.10;83.10;;;;;;5017486;28;20029;-69
2022/06/13 02:27:38;;;;;;;14.00;4.63;;;19.10;83.00;;;;;;5035416;28;20021;-70
2022/06/13 02:30:15;;;;;;;13.70;4.32;;;19.10;83.20;;;;;;5035537;28;20018;-70
2022/06/13 02:32:48;;;;;;;16.15;4.88;;;19.10;83.50;;;;;;5035549;28;20029;-70
2022/06/13 02:35:20;;;;;;;14.60;4.57;;;19.00;83.70;;;;;;5035304;28;20497;-70
2022/06/13 02:38:08;;;;;;;10.55;4.30;;;19.00;83.90;;;;;;5035038;28;20025;-65
2022/06/13 02:40:47;;;;;;;15.32;4.72;;;19.10;84.00;;;;;;5035226;28;20525;-68
2022/06/13 02:43:20;;;;;;;15.27;4.78;;;19.00;84.10;;;;;;5035538;28;20547;-70
2022/06/13 02:45:54;;;;;;;14.48;5.20;;;19.00;84.30;;;;;;5034866;28;20033;-70
2022/06/13 02:48:35;;;;;;;14.00;4.53;;;19.00;84.50;;;;;;5035200;28;20026;-70
2022/06/13 02:51:23;;;;;;;11.55;5.05;;;19.00;84.60;;;;;;5017328;28;20033;-68
2022/06/13 02:54:01;;;;;;;15.27;4.57;;;19.00;84.80;;;;;;5034860;28;20037;-70
2022/06/13 02:59:41;;;;;;;14.80;5.65;;;19.00;85.20;;;;;;5035124;28;20044;-70
2022/06/13 03:02:11;;;;;;;13.90;4.75;;;18.90;85.20;;;;;;5034509;28;20049;-70
2022/06/13 03:04:40;;;;;;;15.40;5.47;;;18.90;85.50;;;;;;5034676;28;20112;-70
2022/06/13 03:07:16;;;;;;;15.45;5.43;;;19.00;85.40;;;;;;5034421;28;20033;-69
2022/06/13 03:09:51;;;;;;;19.58;5.53;;;18.90;85.30;;;;;;5034871;28;20500;-70
2022/06/13 03:12:27;;;;;;;17.17;5.75;;;18.90;85.30;;;;;;5034597;28;20029;-70
2022/06/13 03:15:06;;;;;;;13.55;4.95;;;18.90;85.50;;;;;;5034670;28;20021;-70
2022/06/13 03:17:45;;;;;;;14.57;5.80;;;18.80;85.60;;;;;;5034765;28;20028;-69
2022/06/13 03:20:31;;;;;;;15.48;5.70;;;18.80;85.80;;;;;;5034463;28;20045;-70
2022/06/13 03:23:12;;;;;;;29.85;6.00;;;18.80;86.00;;;;;;5034229;28;20049;-70
2022/06/13 03:25:56;;;;;;;22.35;5.53;;;18.80;86.90;;;;;;5034328;28;20025;-63
2022/06/13 03:28:37;;;;;;;16.58;6.00;;;18.90;85.70;;;;;;5034427;28;20028;-65
2022/06/13 03:31:11;;;;;;;14.85;6.03;;;18.90;85.60;;;;;;5034156;28;20112;-64
2022/06/13 03:33:43;;;;;;;16.58;5.60;;;19.00;85.60;;;;;;5034181;28;20356;-64
2022/06/13 03:36:16;;;;;;;13.40;5.05;;;18.90;85.50;;;;;;5033973;28;20033;-70
2022/06/13 03:38:49;;;;;;;16.23;5.78;;;18.90;85.70;;;;;;5033849;28;20368;-69
2022/06/13 03:41:18;;;;;;;15.02;5.68;;;18.90;85.60;;;;;;5033890;28;20025;-70
2022/06/13 03:43:48;;;;;;;18.88;6.70;;;19.00;85.70;;;;;;5016481;28;20029;-70
2022/06/13 03:46:21;;;;;;;17.35;5.43;;;18.90;85.80;;;;;;5033885;28;20506;-70
2022/06/13 03:49:08;;;;;;;16.77;6.38;;;18.90;85.90;;;;;;5034000;28;20025;-70
2022/06/13 03:51:43;;;;;;;13.88;5.88;;;18.80;86.10;;;;;;5033586;28;20486;-65
2022/06/13 03:54:36;;;;;;;15.02;5.82;;;18.90;86.20;;;;;;5020827;28;20038;-64
2022/06/13 03:57:09;;;;;;;16.27;6.40;;;18.80;86.30;;;;;;5022568;28;20037;-66
2022/06/13 03:59:45;;;;;;;19.33;6.97;;;18.80;86.30;;;;;;5031152;28;20063;-63
2022/06/13 04:02:14;;;;;;;16.67;5.78;;;18.80;86.50;;;;;;5032843;28;20030;-63
2022/06/13 04:04:48;;;;;;;15.02;6.22;;;18.80;86.60;;;;;;5033349;28;20482;-63
2022/06/13 04:07:15;;;;;;;20.02;6.88;;;18.80;86.80;;;;;;5033455;28;20101;-70
2022/06/13 04:09:46;;;;;;;17.00;5.97;;;18.80;86.90;;;;;;5033533;28;20021;-69
2022/06/13 04:12:22;;;;;;;17.63;6.47;;;18.70;86.90;;;;;;5016360;28;20026;-70
2022/06/13 04:15:00;;;;;;;19.73;6.47;;;18.80;87.10;;;;;;5033013;28;20033;-69
2022/06/13 04:17:37;;;;;;;15.55;5.78;;;18.80;87.00;;;;;;5053226;28;20122;-70
2022/06/13 04:20:30;;;;;;;12.75;5.88;;;18.70;87.10;;;;;;5053075;28;20029;-69
2022/06/13 04:22:56;;;;;;;;;;;18.80;87.30;;;;;;5035792;28;20107;-70
2022/06/13 04:25:44;;;;;;;11.73;5.45;;;18.80;87.30;;;;;;5053278;28;20400;-69
2022/06/13 04:28:45;;;;;;;14.30;5.63;;;18.80;87.60;;;;;;5053158;28;20428;-69
2022/06/13 04:31:12;;;;;;;13.68;5.38;;;18.80;87.40;;;;;;5047693;28;20037;-68
2022/06/13 04:33:54;;;;;;;16.63;5.82;;;18.80;87.60;;;;;;5052795;28;20037;-70
2022/06/13 04:36:22;;;;;;;15.23;5.10;;;18.80;87.70;;;;;;5053178;28;20028;-69
2022/06/13 04:38:52;;;;;;;10.75;5.28;;;18.80;87.60;;;;;;5052635;28;20466;-69
2022/06/13 04:41:21;;;;;;;13.25;5.00;;;18.80;87.80;;;;;;5052923;28;20021;-69
2022/06/13 04:43:50;;;;;;;18.17;5.32;;;18.80;87.90;;;;;;5052831;28;20083;-69
2022/06/13 04:46:21;;;;;;;17.45;5.07;;;18.80;88.00;;;;;;5052584;28;20017;-69
2022/06/13 04:48:51;;;;;;;11.68;5.13;;;18.80;88.20;;;;;;5052432;28;20033;-68
2022/06/13 04:51:23;;;;;;;14.60;5.05;;;18.80;88.60;;;;;;5052664;28;20091;-79
2022/06/13 04:54:04;;;;;;;18.08;4.72;;;18.70;89.10;;;;;;5051119;28;20033;-70
2022/06/13 04:56:31;;;;;;;15.73;5.82;;;18.80;88.90;;;;;;5052197;28;20036;-70
2022/06/13 04:58:58;;;;;;;14.20;5.57;;;18.70;89.20;;;;;;5051646;28;20028;-70
2022/06/13 05:01:36;;;;;;;20.05;5.07;;;18.70;89.40;;;;;;5050097;28;20100;-69
2022/06/13 05:04:09;;;;;;;14.55;5.07;;;18.70;89.70;;;;;;5033246;28;20039;-71
2022/06/13 05:06:48;;;;;;;13.95;5.18;;;18.70;90.20;;;;;;5050329;28;20096;-72
2022/06/13 05:09:27;;;;;;;12.60;5.00;;;18.70;89.70;;;;;;5050763;28;20048;-71
2022/06/13 05:12:09;;;;;;;16.00;5.38;;;18.80;89.90;;;;;;5052400;28;20109;-71
2022/06/13 05:15:01;;;;;;;16.08;5.60;;;18.80;90.00;;;;;;5052415;28;20029;-71
2022/06/13 05:17:43;;;;;;;13.63;5.20;;;18.80;90.10;;;;;;5052052;28;20033;-72
2022/06/13 05:20:26;;;;;;;15.80;5.78;;;18.80;90.10;;;;;;5052520;28;20098;-72
2022/06/13 05:23:11;;;;;;;20.27;5.38;;;18.90;90.00;;;;;;5052425;28;20036;-68
2022/06/13 05:25:45;;;;;;;15.25;5.55;;;18.70;90.00;;;;;;5053286;28;20028;-66
2022/06/13 05:28:13;;;;;;;20.20;5.03;;;18.00;91.10;;;;;;5055443;28;20048;-62
2022/06/13 05:30:42;;;;;;;12.48;4.50;;;17.80;91.60;;;;;;5054197;28;20029;-63
2022/06/13 05:33:11;;;;;;;16.30;4.80;;;17.70;91.80;;;;;;5055854;28;20037;-70
2022/06/13 05:35:43;;;;;;;13.07;4.70;;;17.70;91.90;;;;;;5056111;28;20017;-64
2022/06/13 05:38:14;;;;;;;16.27;4.88;;;17.70;91.80;;;;;;5052117;28;20033;-62
2022/06/13 05:40:39;;;;;;;12.70;3.88;;;17.80;91.40;;;;;;5055671;28;20036;-62
2022/06/13 05:43:05;;;;;;;14.93;6.50;;;17.70;91.20;;;;;;5051356;28;20040;-64
2022/06/13 05:45:31;;;;;;;10.75;3.60;;;17.70;90.90;;;;;;5053209;28;20025;-63
2022/06/13 05:47:57;;;;;;;10.40;3.05;;;17.70;90.40;;;;;;5055891;28;20470;-63
2022/06/13 05:50:25;;;;;;;8.65;3.20;;;17.50;90.60;;;;;;5055507;28;20074;-64
2022/06/13 05:52:52;;;;;;;19.98;3.60;;;17.60;91.20;;;;;;5020893;28;20025;-63
2022/06/13 05:55:18;;;;;;;8.43;3.05;;;17.70;91.00;;;;;;5051249;28;20071;-65
2022/06/13 05:57:44;;;;;;;9.40;2.85;;;18.30;90.10;;;;;;5054569;28;20025;-64
2022/06/13 06:00:21;;;;;;;8.50;2.50;;;18.70;88.70;;;;;;5055245;28;20108;-66
2022/06/13 06:02:46;;;;;;;7.20;2.05;;;19.00;87.00;;;;;;5048602;28;20082;-63
2022/06/13 06:05:12;;;;;;;8.60;2.85;;;19.10;85.90;;;;;;5041875;28;20041;-63
2022/06/13 06:07:38;;;;;;;9.63;2.55;;;19.30;86.60;;;;;;5039499;28;20494;-64
2022/06/13 06:10:05;;;;;;;9.63;1.95;;;19.40;84.90;;;;;;5049040;28;20029;-63
2022/06/13 06:12:30;;;;;;;11.77;2.67;;;19.60;83.60;;;;;;5051479;28;20056;-69
2022/06/13 06:14:56;;;;;;;11.32;2.03;;;19.60;83.30;;;;;;5051929;28;20482;-66
2022/06/13 06:17:22;;;;;;;10.10;2.58;;;19.70;84.10;;;;;;5054565;28;20033;-63
2022/06/13 06:19:47;;;;;;;6.22;2.00;;;19.80;83.10;;;;;;5055423;28;20108;-68
2022/06/13 06:22:13;;;;;;;7.80;2.38;;;19.90;82.50;;;;;;5055329;28;20103;-66
2022/06/13 06:24:39;;;;;;;10.65;2.33;;;19.90;82.80;;;;;;5054553;28;20102;-64
2022/06/13 06:27:05;;;;;;;10.60;2.63;;;20.00;82.70;;;;;;5055299;28;20040;-67
2022/06/13 06:29:31;;;;;;;8.73;1.98;;;20.10;81.80;;;;;;5054944;28;20020;-64
2022/06/13 06:31:57;;;;;;;7.30;1.70;;;20.20;80.30;;;;;;5055461;28;20025;-63
2022/06/13 06:34:22;;;;;;;7.03;2.13;;;20.30;80.00;;;;;;5055453;28;20036;-66
2022/06/13 06:36:48;;;;;;;8.98;2.17;;;20.30;80.80;;;;;;5054967;28;20029;-63
2022/06/13 06:39:13;;;;;;;10.23;2.05;;;20.40;80.80;;;;;;5054316;28;20022;-65
2022/06/13 06:41:39;;;;;;;8.15;1.98;;;20.40;80.50;;;;;;5055164;28;20029;-63
2022/06/13 06:44:04;;;;;;;6.55;1.98;;;20.50;80.20;;;;;;5054619;28;20029;-64
2022/06/13 06:46:30;;;;;;;8.27;2.03;;;20.50;79.90;;;;;;5055365;28;20531;-68
2022/06/13 06:48:55;;;;;;;10.45;2.25;;;20.60;78.80;;;;;;5055137;28;20539;-63
2022/06/13 06:51:21;;;;;;;6.07;2.33;;;20.70;79.30;;;;;;5054933;28;20063;-68
2022/06/13 07:02:00;;;;;;;8.93;1.73;;;20.90;77.20;;;;;;5054845;28;20087;-68
2022/06/13 07:04:26;;;;;;;10.15;2.25;;;21.00;77.30;;;;;;5054739;28;20036;-68
2022/06/13 07:06:52;;;;;;;6.32;1.73;;;21.00;77.20;;;;;;5054735;28;20387;-69
2022/06/13 07:09:18;;;;;;;8.68;1.88;;;21.10;77.60;;;;;;5054814;28;20024;-63
2022/06/13 07:11:56;;;;;;;7.35;1.50;;;21.20;77.10;;;;;;5054781;28;20021;-64
2022/06/13 07:14:27;;;;;;;5.80;1.63;;;21.20;77.10;;;;;;5054114;28;20053;-67
2022/06/13 07:16:53;;;;;;;9.15;1.88;;;21.30;77.10;;;;;;5054380;28;20029;-66
2022/06/13 07:19:19;;;;;;;7.05;2.15;;;21.40;76.80;;;;;;5054391;28;20421;-68
2022/06/13 07:21:45;;;;;;;8.68;1.75;;;21.40;76.40;;;;;;5054558;28;20095;-70
2022/06/13 07:24:11;;;;;;;5.90;1.52;;;21.40;76.30;;;;;;5036618;28;20107;-68
2022/06/13 07:26:37;;;;;;;3.97;1.40;;;21.50;75.50;;;;;;5054428;28;20105;-65
2022/06/13 07:29:04;;;;;;;6.88;1.45;;;21.50;75.00;;;;;;5054209;28;20017;-62
2022/06/13 07:31:45;;;;;;;5.65;1.40;;;21.60;73.90;;;;;;5054090;28;20029;-63
2022/06/13 07:34:17;;;;;;;4.95;1.48;;;21.60;73.00;;;;;;5053948;28;20060;-63
2022/06/13 07:36:43;;;;;;;6.32;1.50;;;21.70;73.50;;;;;;5054196;28;20025;-66
2022/06/13 07:39:09;;;;;;;4.00;1.20;;;21.70;73.90;;;;;;5054272;28;20036;-63
2022/06/13 07:41:36;;;;;;;6.30;1.40;;;21.70;73.20;;;;;;5053858;28;20029;-65
2022/06/13 07:44:02;;;;;;;4.35;1.33;;;21.80;72.50;;;;;;5053824;28;20063;-64
2022/06/13 07:46:30;;;;;;;5.68;1.85;;;21.80;73.10;;;;;;5054255;28;20057;-64
2022/06/13 07:48:56;;;;;;;7.18;1.48;;;21.80;73.60;;;;;;5053726;28;20542;-63
2022/06/13 07:51:25;;;;;;;4.50;1.50;;;21.90;73.80;;;;;;5053812;28;20021;-67
2022/06/13 07:53:52;;;;;;;6.43;1.40;;;21.90;73.00;;;;;;5053828;28;20116;-66
2022/06/13 07:56:21;;;;;;;6.55;1.30;;;22.00;70.90;;;;;;5053463;28;20028;-63
2022/06/13 07:58:51;;;;;;;6.40;1.50;;;22.00;69.40;;;;;;5053981;28;20370;-63
2022/06/13 08:01:18;;;;;;;6.88;1.67;;;22.00;69.10;;;;;;5053634;28;20122;-63
2022/06/13 08:03:43;;;;;;;6.18;1.77;;;22.00;70.10;;;;;;5053768;28;20044;-63
2022/06/13 08:06:10;;;;;;;10.43;2.22;;;22.00;69.50;;;;;;5053692;28;20478;-66
2022/06/13 08:08:39;;;;;;;5.00;1.55;;;22.10;70.00;;;;;;5053550;28;20462;-65
2022/06/13 08:11:07;;;;;;;4.65;1.30;;;22.10;70.00;;;;;;5053271;28;20032;-64
2022/06/13 08:13:35;;;;;;;5.95;1.42;;;22.10;69.00;;;;;;5053456;28;20029;-63
2022/06/13 08:16:01;;;;;;;4.10;1.15;;;22.20;68.30;;;;;;5053387;28;20393;-62
2022/06/13 08:18:27;;;;;;;3.80;1.10;;;22.10;69.00;;;;;;5053344;28;20087;-68
2022/06/13 08:20:52;;;;;;;4.80;1.10;;;22.20;69.40;;;;;;5053166;28;20105;-62
2022/06/13 08:23:20;;;;;;;4.10;1.10;;;22.20;69.00;;;;;;5053368;28;20071;-66
2022/06/13 08:25:48;;;;;;;4.95;1.25;;;22.20;68.90;;;;;;5053065;28;20083;-65
2022/06/13 08:28:14;;;;;;;8.00;1.60;;;22.20;69.10;;;;;;5053093;28;20025;-67
2022/06/13 08:30:52;;;;;;;4.68;1.42;;;22.20;69.90;;;;;;5053225;28;20509;-64
2022/06/13 08:33:19;;;;;;;8.15;1.52;;;22.30;69.90;;;;;;5052781;28;20041;-67
2022/06/13 08:35:46;;;;;;;5.15;1.40;;;22.30;69.80;;;;;;5053350;28;20096;-68
2022/06/13 08:38:12;;;;;;;6.70;1.02;;;22.30;69.30;;;;;;5053014;28;20108;-63
2022/06/13 08:41:15;;;;;;;5.93;1.25;;;22.30;70.60;;;;;;5052919;28;20059;-64
2022/06/13 08:44:02;;;;;;;7.18;1.67;;;22.30;69.60;;;;;;5035373;28;20036;-66
2022/06/13 08:46:45;;;;;;;6.80;1.58;;;22.30;69.30;;;;;;5033428;28;20037;-68
2022/06/13 08:49:23;;;;;;;5.35;1.10;;;22.40;67.60;;;;;;5033043;28;20021;-67
2022/06/13 08:52:13;;;;;;;3.50;0.93;;;22.40;68.80;;;;;;5032894;28;20037;-66
2022/06/13 08:54:42;;;;;;;3.20;1.10;;;22.30;69.60;;;;;;5033231;28;20390;-65
2022/06/13 08:57:10;;;;;;;5.22;0.93;;;22.30;70.10;;;;;;5053174;28;20040;-70
2022/06/13 08:59:47;;;;;;;6.07;1.30;;;22.30;69.80;;;;;;5052850;28;20024;-69
2022/06/13 09:02:22;;;;;;;3.05;1.08;;;22.40;69.00;;;;;;5052184;28;20036;-67
2022/06/13 09:05:08;;;;;;;4.50;1.10;;;22.40;68.40;;;;;;5057862;28;20021;-68
2022/06/13 09:07:44;;;;;;;4.55;1.10;;;22.40;67.60;;;;;;5052959;28;20114;-67
2022/06/13 09:10:20;;;;;;;4.65;1.00;;;22.40;69.40;;;;;;5056311;28;20053;-63
2022/06/13 09:13:10;;;;;;;5.82;1.05;;;22.50;69.50;;;;;;5056563;28;20029;-63
2022/06/13 09:15:49;;;;;;;4.65;0.95;;;22.50;69.60;;;;;;5055215;28;20079;-69
2022/06/13 09:18:25;;;;;;;4.00;1.00;;;22.50;68.90;;;;;;5043300;28;20033;-68
2022/06/13 09:21:19;;;;;;;4.20;0.82;;;22.50;67.50;;;;;;5056192;28;20021;-68
2022/06/13 09:24:00;;;;;;;3.08;0.80;;;22.50;66.50;;;;;;5049574;28;20021;-68
2022/06/13 09:26:36;;;;;;;4.18;0.90;;;22.60;65.90;;;;;;5045833;28;20025;-66
2022/06/13 09:29:18;;;;;;;2.33;0.52;;;22.60;67.00;;;;;;5046200;28;20095;-66
2022/06/13 09:31:50;;;;;;;4.40;1.00;;;22.60;66.30;;;;;;5052037;28;20063;-64
2022/06/13 09:34:20;;;;;;;;;;;22.60;68.80;;;;;;5046614;28;20083;-66
2022/06/13 09:37:09;;;;;;;3.42;0.70;;;22.60;68.90;;;;;;5053574;28;20007;-64
2022/06/13 09:39:36;;;;;;;4.30;0.95;;;22.60;67.70;;;;;;4998241;28;20486;-67
2022/06/13 09:42:23;;;;;;;3.70;0.75;;;22.60;68.50;;;;;;5050827;28;20035;-64
2022/06/13 09:44:48;;;;;;;7.05;1.20;;;22.60;67.80;;;;;;5045135;28;20040;-67
2022/06/13 09:47:34;;;;;;;4.97;1.05;;;22.70;67.40;;;;;;5043487;28;20025;-65
2022/06/13 09:50:00;;;;;;;5.10;1.00;;;22.70;66.80;;;;;;5056453;28;20029;-67
2022/06/13 09:52:28;;;;;;;3.50;0.98;;;22.70;65.40;;;;;;5040815;28;20044;-66
2022/06/13 09:55:21;;;;;;;3.85;0.70;;;22.80;66.40;;;;;;5032415;28;20076;-66
2022/06/13 09:58:17;;;;;;;2.40;0.60;;;22.80;66.80;;;;;;5049514;28;20029;-63
2022/06/13 10:01:04;;;;;;;4.80;1.30;;;22.80;65.00;;;;;;5038618;28;20494;-64
2022/06/13 10:04:09;;;;;;;2.45;0.80;;;22.80;64.30;;;;;;5048790;28;20029;-66
2022/06/13 10:06:49;;;;;;;5.38;0.90;;;22.80;62.70;;;;;;5037313;28;20159;-65
2022/06/13 10:09:59;;;;;;;4.53;0.85;;;22.90;64.30;;;;;;5046424;28;20119;-64
2022/06/13 10:12:45;;;;;;;5.53;1.08;;;22.90;63.90;;;;;;5048461;28;20028;-67
2022/06/13 10:15:33;;;;;;;4.22;0.70;;;22.90;64.30;;;;;;5051966;28;20381;-64
2022/06/13 10:18:30;;;;;;;5.40;0.77;;;22.90;64.50;;;;;;5053986;28;20460;-63
2022/06/13 10:21:10;;;;;;;5.70;0.70;;;22.90;61.80;;;;;;5053417;28;20017;-66
2022/06/13 10:24:11;;;;;;;3.70;0.82;;;22.90;63.30;;;;;;5049758;28;20382;-68
2022/06/13 10:26:45;;;;;;;3.67;0.90;;;22.90;63.00;;;;;;5053583;28;20025;-63
2022/06/13 10:29:42;;;;;;;2.50;0.50;;;23.00;64.80;;;;;;5045508;28;20408;-67
2022/06/13 10:32:26;;;;;;;4.20;0.77;;;22.90;63.60;;;;;;5048642;28;20040;-65
2022/06/13 10:35:13;;;;;;;2.92;0.60;;;23.00;61.70;;;;;;5052711;28;20047;-67
2022/06/13 10:37:57;;;;;;;3.15;0.60;;;22.90;62.70;;;;;;5052494;28;20111;-67
2022/06/13 10:40:25;;;;;;;3.75;0.73;;;23.00;65.60;;;;;;5036787;28;20406;-70
2022/06/13 10:42:51;;;;;;;3.13;0.65;;;23.00;67.50;;;;;;5054309;28;20440;-67
2022/06/13 10:45:17;;;;;;;2.33;0.70;;;23.00;71.50;;;;;;5054090;28;20017;-67
2022/06/13 10:47:48;;;;;;;3.05;1.15;;;23.00;70.60;;;;;;5054055;28;20119;-66
2022/06/13 10:50:45;;;;;;;3.42;0.95;;;23.00;76.20;;;;;;5051682;28;20530;-67
2022/06/13 10:53:23;;;;;;;3.90;0.70;;;23.00;71.80;;;;;;5030388;28;20086;-67
2022/06/13 10:55:51;;;;;;;4.90;0.90;;;23.00;71.90;;;;;;5053438;28;20029;-63
2022/06/13 10:58:23;;;;;;;3.47;0.80;;;23.00;67.60;;;;;;5053357;28;20114;-66
2022/06/13 11:01:03;;;;;;;;;;;23.00;71.80;;;;;;5053811;28;20389;-66
2022/06/13 11:03:28;;;;;;;4.75;0.88;;;23.00;67.70;;;;;;5049573;28;19912;-64
2022/06/13 11:06:02;;;;;;;4.13;0.63;;;23.00;66.20;;;;;;5052731;28;20021;-68
2022/06/13 11:08:29;;;;;;;5.93;0.60;;;22.90;63.60;;;;;;5042779;28;20037;-64
2022/06/13 11:11:00;;;;;;;3.35;0.85;;;22.90;65.90;;;;;;5045229;28;20024;-67
2022/06/13 11:13:34;;;;;;;2.97;1.00;;;23.00;71.40;;;;;;5048291;28;20039;-66
2022/06/13 11:24:49;;;;;;;3.97;0.90;;;23.00;65.90;;;;;;5048865;28;20039;-68
2022/06/13 11:27:41;;;;;;;2.53;0.70;;;22.90;62.60;;;;;;5049564;28;20469;-65
2022/06/13 11:30:31;;;;;;;7.50;1.08;;;23.00;68.20;;;;;;5046737;28;20075;-65
2022/06/13 11:33:17;;;;;;;4.95;0.75;;;23.00;70.30;;;;;;5050136;28;20029;-66
2022/06/13 11:35:56;;;;;;;2.88;0.77;;;23.00;63.00;;;;;;5048851;28;20048;-67
2022/06/13 11:38:36;;;;;;;3.83;0.77;;;23.00;67.40;;;;;;5021447;28;20541;-67
2022/06/13 11:41:23;;;;;;;7.32;0.63;;;23.00;69.80;;;;;;5019475;28;20025;-65
2022/06/13 11:44:03;;;;;;;2.70;0.43;;;23.00;64.60;;;;;;5038489;28;20033;-62
2022/06/13 11:46:55;;;;;;;3.00;0.52;;;23.00;67.80;;;;;;5047017;28;20021;-66
2022/06/13 11:49:35;;;;;;;2.40;0.70;;;23.00;65.80;;;;;;5022764;28;20469;-70
2022/06/13 11:52:09;;;;;;;4.78;0.98;;;23.00;64.60;;;;;;5041839;28;20027;-66
2022/06/13 11:54:40;;;;;;;3.47;0.80;;;23.00;63.20;;;;;;5050135;28;20579;-67
2022/06/13 11:57:18;;;;;;;3.37;0.70;;;23.00;65.80;;;;;;5048898;28;20066;-66
2022/06/13 11:59:55;;;;;;;4.03;0.65;;;23.10;63.00;;;;;;5048156;28;20037;-65
2022/06/13 12:02:51;;;;;;;7.22;0.80;;;23.00;63.30;;;;;;5050330;28;20108;-64
2022/06/13 12:05:39;;;;;;;4.43;0.82;;;23.00;63.40;;;;;;5050036;28;20032;-64
2022/06/13 12:08:27;;;;;;;4.72;0.50;;;23.10;60.80;;;;;;5049938;28;20029;-68
2022/06/13 12:11:02;;;;;;;2.33;0.50;;;23.00;64.40;;;;;;5042856;28;20025;-69
2022/06/13 12:13:31;;;;;;;2.70;0.50;;;23.10;66.10;;;;;;5039138;28;20506;-66
2022/06/13 12:16:27;;;;;;;3.30;0.50;;;23.10;60.20;;;;;;5050009;28;20021;-64
2022/06/13 12:19:01;;;;;;;3.60;0.50;;;23.10;57.70;;;;;;5039930;28;20099;-63
2022/06/13 12:21:46;;;;;;;3.88;0.77;;;23.00;57.00;;;;;;5039238;28;20035;-65
2022/06/13 12:24:33;;;;;;;2.45;0.40;;;23.00;56.90;;;;;;5036275;28;20017;-63
2022/06/13 12:27:21;;;;;;;3.28;0.40;;;22.90;57.00;;;;;;5044320;28;20038;-66
2022/06/13 12:29:57;;;;;;;5.07;0.30;;;22.90;57.80;;;;;;5016131;28;20017;-65
2022/06/13 12:32:38;;;;;;;4.20;0.50;;;22.90;57.70;;;;;;5045622;28;20036;-65
2022/06/13 12:35:17;;;;;;;4.88;0.50;;;22.90;57.20;;;;;;5049370;28;20517;-65
2022/06/13 12:38:16;;;;;;;4.15;0.50;;;23.00;59.10;;;;;;5047421;28;20036;-66
2022/06/13 12:41:04;;;;;;;5.38;0.70;;;23.00;58.80;;;;;;5048337;28;20017;-65
2022/06/13 12:43:36;;;;;;;2.80;0.73;;;23.00;57.90;;;;;;5003842;28;20091;-65
2022/06/13 12:46:23;;;;;;;3.70;0.70;;;23.00;59.40;;;;;;5019189;28;20021;-64
2022/06/13 12:49:21;;;;;;;3.45;0.50;;;23.10;58.60;;;;;;5041711;28;20072;-66
2022/06/13 12:52:07;;;;;;;4.63;0.55;;;23.10;58.40;;;;;;5040729;28;20612;-65
2022/06/13 12:54:52;;;;;;;3.20;0.45;;;23.10;62.80;;;;;;5032875;28;20048;-64
2022/06/13 12:57:19;;;;;;;5.47;0.73;;;23.10;65.50;;;;;;5040733;28;20076;-67
2022/06/13 13:00:11;;;;;;;3.08;0.35;;;23.00;59.40;;;;;;5036517;28;20026;-64
2022/06/13 13:03:13;;;;;;;5.00;1.08;;;23.10;61.50;;;;;;5037971;28;20552;-67
2022/06/13 13:05:57;;;;;;;3.22;0.50;;;23.10;61.70;;;;;;5033368;28;20026;-68
2022/06/13 13:08:38;;;;;;;5.32;0.60;;;23.10;67.40;;;;;;5048435;28;20024;-66
2022/06/13 13:11:11;;;;;;;1.95;0.40;;;23.10;63.00;;;;;;5038230;28;20029;-69
2022/06/13 13:14:00;;;;;;;4.60;0.55;;;23.10;61.80;;;;;;5049646;28;20381;-69
2022/06/13 13:16:35;;;;;;;3.47;0.52;;;23.10;64.60;;;;;;5045924;28;20090;-66
2022/06/13 13:19:17;;;;;;;2.58;0.60;;;23.10;62.80;;;;;;5046416;28;20021;-68
2022/06/13 13:21:56;;;;;;;5.32;0.85;;;23.20;67.70;;;;;;5034130;28;20485;-68
2022/06/13 13:24:54;;;;;;;2.15;0.50;;;23.20;62.90;;;;;;5018793;28;20025;-68
2022/06/13 13:27:21;;;;;;;4.40;0.40;;;23.20;65.10;;;;;;5039292;28;20040;-68
2022/06/13 13:29:59;;;;;;;3.22;0.57;;;23.20;58.20;;;;;;5045841;28;20022;-68
2022/06/13 13:33:01;;;;;;;2.20;0.63;;;23.10;58.40;;;;;;5047620;28;20024;-68
2022/06/13 13:35:52;;;;;;;3.85;0.85;;;23.10;57.60;;;;;;5031798;28;20094;-66
2022/06/13 13:38:51;;;;;;;3.77;0.37;;;23.10;59.00;;;;;;5009165;28;20040;-65
2022/06/13 13:41:28;;;;;;;1.90;0.40;;;23.00;57.00;;;;;;5033546;28;20034;-66
2022/06/13 13:43:58;;;;;;;2.45;0.40;;;23.10;59.00;;;;;;5048376;28;20045;-68
2022/06/13 13:46:35;;;;;;;4.63;0.43;;;22.90;58.60;;;;;;5051418;28;20025;-64